Time;durP1;ratioP1;P1;durP2;ratioP2;P2;SDS_P1;SDS_P2;PMS_P1;PMS_P2;Temp;Humidity;BMP_temperature;BMP_pressure;BME280_temperature;BME280_humidity;BME280_pressure;Samples;Min_cycle;Max_cycle;Signal;HPM_P1;HPM_P2
2021/08/10 00:00:19;;;;;;;5.78;4.75;;;;;;;20.98;75.98;99667.05;1808269;77;20991;-73
2021/08/10 00:02:53;;;;;;;6.37;4.78;;;;;;;20.97;75.89;99671.84;1812289;77;22075;-74
2021/08/10 00:05:21;;;;;;;5.78;4.78;;;;;;;20.91;75.97;99664.97;1792202;77;21027;-74
2021/08/10 00:07:53;;;;;;;9.08;5.28;;;;;;;20.84;76.16;99669.10;1807778;79;21004;-72
2021/08/10 00:10:29;;;;;;;6.55;4.67;;;;;;;20.77;76.32;99661.45;1820987;77;21028;-71
2021/08/10 00:13:03;;;;;;;7.97;5.03;;;;;;;20.72;76.64;99665.41;1808567;77;21091;-72
2021/08/10 00:15:31;;;;;;;7.03;5.20;;;;;;;20.64;76.78;99666.54;1816037;77;21020;-74
2021/08/10 00:18:00;;;;;;;6.85;5.40;;;;;;;20.58;76.96;99668.88;1812296;79;21547;-74
2021/08/10 00:20:26;;;;;;;7.60;6.05;;;;;;;20.56;77.19;99669.85;1817598;77;21016;-74
2021/08/10 00:22:58;;;;;;;5.83;4.25;;;;;;;20.52;77.28;99666.23;1818687;77;21051;-71
2021/08/10 00:25:37;;;;;;;5.72;4.90;;;;;;;20.46;77.52;99671.36;1818512;77;21027;-72
2021/08/10 00:28:09;;;;;;;7.15;5.33;;;;;;;20.41;77.79;99668.33;1819838;77;21093;-73
2021/08/10 00:30:42;;;;;;;6.28;5.30;;;;;;;20.38;77.93;99671.89;1812592;77;20989;-74
2021/08/10 00:33:09;;;;;;;15.18;5.92;;;;;;;20.36;78.12;99670.07;1814576;77;21012;-73
2021/08/10 00:35:40;;;;;;;8.63;5.78;;;;;;;20.36;78.23;99670.07;1822188;77;21092;-72
2021/08/10 00:38:09;;;;;;;13.28;6.00;;;;;;;20.34;78.23;99667.43;1818913;77;20988;-77
2021/08/10 00:40:36;;;;;;;11.30;5.70;;;;;;;20.29;78.39;99670.80;1814941;77;21251;-72
2021/08/10 00:43:29;;;;;;;6.53;5.42;;;;;;;20.26;78.50;99670.76;1789386;79;21500;-76
2021/08/10 00:45:59;;;;;;;5.60;4.80;;;;;;;20.25;78.60;99677.55;1791047;79;21250;-72
2021/08/10 00:48:30;;;;;;;5.80;4.67;;;;;;;20.23;78.65;99673.74;1756072;80;20988;-75
2021/08/10 00:51:03;;;;;;;5.22;4.72;;;;;;;20.22;78.70;99680.50;1755969;80;22338;-74
2021/08/10 00:53:34;;;;;;;8.53;5.37;;;;;;;20.22;78.74;99683.30;1786927;79;21112;-70
2021/08/10 00:56:08;;;;;;;6.83;4.92;;;;;;;20.20;78.77;99680.08;1725024;81;20995;-77
2021/08/10 00:58:37;;;;;;;7.33;5.42;;;;;;;20.17;78.84;99673.85;1726485;81;21011;-73
2021/08/10 01:01:04;;;;;;;8.63;5.67;;;;;;;20.14;78.79;99675.44;1727416;81;21499;-73
2021/08/10 01:03:33;;;;;;;8.85;5.25;;;;;;;20.11;78.91;99679.00;1747580;80;21047;-74
2021/08/10 01:06:07;;;;;;;6.42;4.80;;;;;;;20.08;78.94;99668.55;1755084;81;21044;-75
2021/08/10 01:08:57;;;;;;;6.55;5.08;;;;;;;20.06;78.97;99668.16;1758034;80;22229;-74
2021/08/10 01:12:08;;;;;;;5.70;5.10;;;;;;;20.03;79.12;99674.45;1759282;80;21046;-72
2021/08/10 01:14:47;;;;;;;9.70;4.90;;;;;;;20.01;79.11;99672.05;1745885;82;21007;-72
2021/08/10 01:17:28;;;;;;;6.40;4.85;;;;;;;19.99;79.27;99674.44;1743624;82;21078;-72
2021/08/10 01:20:49;;;;;;;7.70;5.08;;;;;;;19.98;79.36;99674.82;1711928;81;21108;-75
2021/08/10 01:23:23;;;;;;;8.03;5.15;;;;;;;19.98;79.45;99672.02;1746633;80;21110;-73
2021/08/10 01:26:17;;;;;;;9.08;5.42;;;;;;;19.98;79.45;99672.02;1745050;80;21537;-75
2021/08/10 01:29:31;;;;;;;8.13;5.40;;;;;;;19.97;79.53;99670.39;1756649;81;21001;-74
2021/08/10 01:32:01;;;;;;;9.28;5.90;;;;;;;19.95;79.56;99672.99;1739863;81;21022;-74
2021/08/10 01:34:45;;;;;;;6.22;5.62;;;;;;;19.97;79.62;99669.81;1779303;79;22014;-72
2021/08/10 01:37:19;;;;;;;;;;;;;;;19.98;79.54;99663.64;1749928;80;21024;-76
2021/08/10 01:39:55;;;;;;;5.85;5.15;;;;;;;20.00;79.58;99673.24;1761699;79;20170;-76
2021/08/10 01:42:25;;;;;;;7.40;4.47;;;;;;;19.98;79.52;99672.81;1722151;81;21044;-77
2021/08/10 01:44:53;;;;;;;10.23;5.40;;;;;;;19.98;79.61;99668.62;1750544;80;21513;-74
2021/08/10 01:47:21;;;;;;;8.55;4.92;;;;;;;19.97;79.50;99662.83;1729459;80;21137;-78
2021/08/10 01:49:50;;;;;;;6.75;5.10;;;;;;;19.99;79.44;99659.64;1724958;80;21623;-75
2021/08/10 01:52:24;;;;;;;6.72;5.03;;;;;;;19.97;79.41;99648.84;1745245;80;21067;-74
2021/08/10 01:55:02;;;;;;;7.62;5.12;;;;;;;19.92;79.28;99646.39;1754361;80;21054;-73
2021/08/10 01:57:32;;;;;;;7.45;6.17;;;;;;;19.91;79.49;99652.56;1763909;80;21618;-74
2021/08/10 02:00:01;;;;;;;9.10;6.25;;;;;;;19.91;79.45;99649.77;1751258;80;21145;-73
2021/08/10 02:02:34;;;;;;;9.68;6.15;;;;;;;19.87;79.33;99653.13;1763103;80;21411;-76
2021/08/10 02:05:08;;;;;;;7.45;6.22;;;;;;;19.80;79.43;99653.03;1744234;81;21033;-73
2021/08/10 02:07:37;;;;;;;7.05;6.35;;;;;;;19.75;79.60;99652.78;1745952;81;21050;-73
2021/08/10 02:10:10;;;;;;;8.68;5.95;;;;;;;19.76;79.80;99657.76;1766053;78;21009;-72
2021/08/10 02:12:43;;;;;;;10.40;5.90;;;;;;;19.76;79.61;99649.38;1772497;78;20973;-75
2021/08/10 02:15:11;;;;;;;9.13;6.22;;;;;;;19.73;79.71;99655.73;1810295;78;21004;-77
2021/08/10 02:17:45;;;;;;;5.92;5.17;;;;;;;19.70;79.76;99646.12;1803435;78;20997;-76
2021/08/10 02:20:22;;;;;;;6.78;5.10;;;;;;;19.70;79.83;99646.12;1768963;80;21017;-77
2021/08/10 02:22:48;;;;;;;6.17;5.50;;;;;;;19.70;79.76;99646.12;1748678;80;20990;-73
2021/08/10 02:25:21;;;;;;;10.10;6.25;;;;;;;19.63;79.74;99648.82;1808416;78;21084;-75
2021/08/10 02:28:01;;;;;;;6.62;5.65;;;;;;;19.58;79.89;99648.56;1807630;78;21079;-76
2021/08/10 02:30:32;;;;;;;8.35;5.53;;;;;;;19.58;80.02;99651.36;1796223;78;20989;-72
2021/08/10 02:33:05;;;;;;;7.92;4.97;;;;;;;19.60;80.06;99649.00;1788171;78;21021;-73
2021/08/10 02:35:35;;;;;;;8.28;5.40;;;;;;;19.57;79.89;99646.36;1806206;78;21012;-71
2021/08/10 02:38:10;;;;;;;14.43;5.80;;;;;;;19.50;79.99;99650.44;1802892;78;21048;-71
2021/08/10 02:40:39;;;;;;;5.87;5.33;;;;;;;19.49;80.17;99646.63;1812836;78;21045;-73
2021/08/10 02:43:11;;;;;;;8.88;5.90;;;;;;;19.48;80.25;99644.45;1810754;78;21032;-71
2021/08/10 02:45:47;;;;;;;7.87;5.08;;;;;;;19.46;80.27;99648.21;1803350;79;21012;-76
2021/08/10 02:48:16;;;;;;;6.37;5.33;;;;;;;19.47;80.34;99642.83;1808074;78;20988;-70
2021/08/10 02:50:45;;;;;;;11.38;5.10;;;;;;;19.48;80.31;99650.04;1803247;78;21036;-75
2021/08/10 02:53:13;;;;;;;9.63;5.15;;;;;;;19.46;80.26;99647.59;1810599;77;21079;-74
2021/08/10 02:55:45;;;;;;;5.97;5.47;;;;;;;19.46;80.23;99652.40;1803607;79;20996;-76
2021/08/10 02:58:23;;;;;;;6.25;5.50;;;;;;;19.40;80.30;99650.52;1782364;79;21008;-73
2021/08/10 03:01:07;;;;;;;8.93;5.83;;;;;;;19.33;80.46;99657.39;1803827;77;21519;-75
2021/08/10 03:03:34;;;;;;;6.60;5.35;;;;;;;19.29;80.75;99652.36;1818751;77;21063;-71
2021/08/10 03:06:06;;;;;;;6.08;5.37;;;;;;;19.29;80.88;99659.34;1820228;77;21016;-70
2021/08/10 03:08:38;;;;;;;6.58;5.87;;;;;;;19.31;81.01;99659.78;1818164;77;21023;-72
2021/08/10 03:11:07;;;;;;;9.13;5.85;;;;;;;19.32;80.95;99663.59;1811407;77;21511;-70
2021/08/10 03:13:37;;;;;;;8.95;6.15;;;;;;;19.33;80.98;99662.39;1817706;77;20996;-73
2021/08/10 03:16:09;;;;;;;9.33;6.55;;;;;;;19.36;81.01;99666.44;1810938;78;20978;-75
2021/08/10 03:18:36;;;;;;;8.28;6.65;;;;;;;19.37;80.88;99659.66;1792243;77;20984;-72
2021/08/10 03:21:08;;;;;;;6.95;5.62;;;;;;;19.37;80.84;99662.45;1809183;77;21021;-76
2021/08/10 03:23:38;;;;;;;8.60;6.40;;;;;;;19.39;80.98;99662.07;1812368;77;21020;-74
2021/08/10 03:26:04;;;;;;;9.70;5.67;;;;;;;19.43;80.93;99669.31;1780693;79;20995;-73
2021/08/10 03:28:39;;;;;;;8.20;5.95;;;;;;;19.43;80.92;99665.73;1816606;77;21516;-70
2021/08/10 03:31:04;;;;;;;7.20;5.67;;;;;;;19.42;80.82;99667.71;1812248;77;21024;-72
2021/08/10 03:33:32;;;;;;;8.45;5.17;;;;;;;19.41;80.93;99664.72;1761516;79;21564;-72
2021/08/10 03:36:00;;;;;;;5.70;5.10;;;;;;;19.43;80.84;99670.70;1815549;77;20968;-72
2021/08/10 03:38:31;;;;;;;8.28;5.35;;;;;;;19.42;80.84;99667.71;1815132;77;21460;-71
2021/08/10 03:41:01;;;;;;;6.78;6.08;;;;;;;19.46;80.89;99668.55;1815709;77;22191;-71
2021/08/10 03:43:29;;;;;;;6.92;5.20;;;;;;;19.50;80.86;99671.40;1812020;77;21516;-75
2021/08/10 03:46:02;;;;;;;7.58;5.90;;;;;;;19.54;80.64;99670.05;1810049;79;21027;-74
2021/08/10 03:48:43;;;;;;;7.60;6.42;;;;;;;19.54;80.70;99665.86;1821902;77;21008;-72
2021/08/10 03:51:11;;;;;;;8.00;5.85;;;;;;;19.55;80.73;99671.69;1838522;77;21440;-76
2021/08/10 03:53:39;;;;;;;6.60;5.03;;;;;;;19.58;80.66;99666.12;1815115;77;21936;-74
2021/08/10 03:56:10;;;;;;;6.25;5.65;;;;;;;19.57;80.50;99664.52;1819445;77;20985;-74
2021/08/10 03:58:45;;;;;;;8.38;5.50;;;;;;;19.56;80.65;99667.11;1815160;77;21040;-76
2021/08/10 04:01:16;;;;;;;5.83;5.22;;;;;;;19.55;80.60;99660.50;1769150;79;21004;-72
2021/08/10 04:03:45;;;;;;;7.53;5.67;;;;;;;19.53;80.72;99662.25;1801626;78;21027;-72
2021/08/10 04:06:15;;;;;;;5.95;5.35;;;;;;;19.54;80.68;99656.90;1807759;78;21124;-72
2021/08/10 04:08:44;;;;;;;5.92;5.33;;;;;;;19.54;80.78;99661.67;1805841;77;20958;-72
2021/08/10 04:11:19;;;;;;;6.08;5.47;;;;;;;19.57;80.86;99655.32;1772732;78;21533;-73
2021/08/10 04:13:55;;;;;;;7.10;4.62;;;;;;;19.65;80.89;99654.23;1764441;79;21002;-72
2021/08/10 04:16:23;;;;;;;8.38;6.50;;;;;;;19.76;80.55;99653.56;1792677;78;21087;-76
2021/08/10 04:18:55;;;;;;;6.95;5.37;;;;;;;19.83;80.14;99655.06;1809337;78;21103;-73
2021/08/10 04:21:26;;;;;;;11.03;5.37;;;;;;;19.86;79.92;99652.90;1805090;78;21529;-75
2021/08/10 04:24:02;;;;;;;6.78;5.37;;;;;;;19.90;79.89;99655.16;1806794;78;21044;-72
2021/08/10 04:26:26;;;;;;;7.40;5.87;;;;;;;19.97;79.53;99655.83;1803813;78;21458;-72
2021/08/10 04:28:54;;;;;;;12.47;5.62;;;;;;;19.95;79.20;99655.41;1805234;78;21079;-76
2021/08/10 04:31:25;;;;;;;6.75;5.53;;;;;;;19.95;79.24;99659.02;1816255;78;20961;-72
2021/08/10 04:33:53;;;;;;;10.15;5.67;;;;;;;19.95;79.19;99661.81;1809096;78;20977;-69
2021/08/10 04:36:21;;;;;;;7.90;5.55;;;;;;;20.00;79.23;99664.85;1810066;78;21009;-73
2021/08/10 04:38:51;;;;;;;10.68;5.92;;;;;;;20.02;78.93;99663.88;1811748;77;20997;-77
2021/08/10 04:41:18;;;;;;;8.20;5.37;;;;;;;20.02;78.77;99663.07;1806234;78;21516;-71
2021/08/10 04:43:54;;;;;;;8.50;6.33;;;;;;;20.01;78.58;99653.87;1803583;78;22189;-75
2021/08/10 04:46:26;;;;;;;12.98;6.60;;;;;;;19.95;78.30;99660.99;1811416;78;22106;-70
2021/08/10 04:48:54;;;;;;;9.80;6.25;;;;;;;19.95;78.84;99656.22;1728367;81;21092;-70
2021/08/10 04:51:21;;;;;;;7.95;6.17;;;;;;;20.03;78.92;99656.28;1764757;80;21484;-70
2021/08/10 04:53:54;;;;;;;7.20;5.55;;;;;;;20.15;78.65;99652.45;1744414;81;21489;-72
2021/08/10 04:56:23;;;;;;;7.33;5.00;;;;;;;20.30;78.83;99658.41;1770414;80;21084;-71
2021/08/10 04:58:53;;;;;;;10.90;5.83;;;;;;;20.40;78.20;99650.53;1746820;81;21600;-70
2021/08/10 05:01:23;;;;;;;7.87;5.37;;;;;;;20.47;77.86;99645.59;1717807;82;21061;-77
2021/08/10 05:03:51;;;;;;;5.90;5.12;;;;;;;20.52;77.65;99648.83;1743652;81;20980;-71
2021/08/10 05:06:18;;;;;;;6.85;5.67;;;;;;;20.54;77.00;99647.85;1741490;81;21525;-72
2021/08/10 05:08:48;;;;;;;12.55;6.08;;;;;;;20.60;77.03;99640.50;1744366;81;21196;-77
2021/08/10 05:11:15;;;;;;;10.13;6.28;;;;;;;20.69;77.15;99645.20;1746257;81;21542;-72
2021/08/10 05:13:44;;;;;;;6.47;5.67;;;;;;;20.77;77.02;99641.27;1740489;81;21024;-75
2021/08/10 05:16:18;;;;;;;8.75;4.87;;;;;;;20.84;76.89;99641.92;1739978;81;21017;-74
2021/08/10 05:18:49;;;;;;;7.60;5.90;;;;;;;20.95;76.62;99644.03;1731349;81;21383;-75
2021/08/10 05:21:16;;;;;;;10.48;5.60;;;;;;;21.06;76.38;99637.91;1736910;80;21083;-73
2021/08/10 05:23:46;;;;;;;8.68;6.08;;;;;;;21.12;75.61;99633.53;1811518;78;21176;-75
2021/08/10 05:26:13;;;;;;;11.48;5.92;;;;;;;21.16;74.98;99637.77;1777408;78;21082;-71
2021/08/10 05:28:41;;;;;;;8.23;5.03;;;;;;;21.16;75.31;99633.56;1803722;78;21611;-75
2021/08/10 05:31:07;;;;;;;7.85;4.90;;;;;;;21.19;75.33;99639.77;1799997;78;21083;-71
2021/08/10 05:33:35;;;;;;;6.75;5.65;;;;;;;21.25;75.18;99639.63;1801831;78;21136;-71
2021/08/10 05:36:04;;;;;;;8.20;5.30;;;;;;;21.29;74.45;99643.84;1812433;78;20985;-72
2021/08/10 05:38:42;;;;;;;14.93;5.47;;;;;;;21.29;73.91;99638.23;1818432;78;20993;-75
2021/08/10 05:41:12;;;;;;;7.70;5.28;;;;;;;21.29;73.96;99638.23;1808108;78;21730;-74
2021/08/10 05:43:42;;;;;;;11.30;6.22;;;;;;;21.33;73.99;99636.27;1805086;78;20985;-73
2021/08/10 05:46:15;;;;;;;10.25;5.65;;;;;;;21.37;73.42;99638.50;1807415;78;21110;-77
2021/08/10 05:48:43;;;;;;;7.20;4.85;;;;;;;21.36;73.57;99638.28;1804462;78;21520;-74
2021/08/10 05:51:13;;;;;;;10.53;5.60;;;;;;;21.43;73.48;99643.13;1809139;78;21040;-73
2021/08/10 05:53:46;;;;;;;9.18;5.03;;;;;;;21.49;73.44;99642.16;1806490;78;20978;-75
2021/08/10 05:56:13;;;;;;;11.43;5.47;;;;;;;21.59;73.79;99637.21;1803404;78;20978;-75
2021/08/10 05:58:42;;;;;;;6.85;5.50;;;;;;;21.71;73.67;99640.27;1807876;78;21131;-78
2021/08/10 06:01:09;;;;;;;12.55;5.17;;;;;;;21.84;73.29;99638.53;1810076;78;21505;-75
2021/08/10 06:03:39;;;;;;;5.78;4.75;;;;;;;21.89;72.49;99648.77;1817373;77;21099;-76
2021/08/10 06:06:08;;;;;;;9.30;4.95;;;;;;;21.91;72.52;99641.95;1812194;77;21032;-77
2021/08/10 06:08:39;;;;;;;7.37;4.95;;;;;;;21.96;72.62;99648.58;1814296;77;20985;-75
2021/08/10 06:11:09;;;;;;;9.05;5.25;;;;;;;22.08;72.74;99651.03;1811805;79;21036;-73
2021/08/10 06:13:39;;;;;;;6.83;5.03;;;;;;;22.19;72.07;99648.86;1809531;79;21075;-74
2021/08/10 06:16:05;;;;;;;5.17;4.45;;;;;;;22.23;71.25;99648.25;1809662;79;21008;-74
2021/08/10 06:18:34;;;;;;;6.60;5.05;;;;;;;22.24;71.49;99647.08;1780294;79;21000;-72
2021/08/10 06:21:06;;;;;;;6.83;4.92;;;;;;;22.26;70.58;99641.88;1812721;79;21520;-75
2021/08/10 06:23:35;;;;;;;9.35;4.85;;;;;;;22.25;70.67;99643.05;1811110;77;21139;-77
2021/08/10 06:26:07;;;;;;;6.00;5.03;;;;;;;22.25;70.96;99640.25;1810442;79;21028;-73
2021/08/10 06:28:36;;;;;;;7.25;4.97;;;;;;;22.29;70.24;99638.86;1809812;79;21009;-72
2021/08/10 06:31:05;;;;;;;6.95;4.58;;;;;;;22.29;70.63;99639.67;1809643;79;20992;-77
2021/08/10 06:33:34;;;;;;;13.32;4.75;;;;;;;22.39;70.92;99636.67;1778942;79;21087;-78
2021/08/10 06:36:16;;;;;;;5.03;4.40;;;;;;;22.47;70.96;99634.66;1808877;77;21029;-81
2021/08/10 06:38:42;;;;;;;9.75;4.47;;;;;;;22.54;70.16;99637.48;1814387;77;21043;-68
2021/08/10 06:41:10;;;;;;;7.30;4.40;;;;;;;22.59;70.41;99639.89;1821263;77;20968;-72
2021/08/10 06:43:46;;;;;;;7.65;4.92;;;;;;;22.70;70.36;99634.92;1819759;77;21544;-77
2021/08/10 06:46:20;;;;;;;7.35;5.00;;;;;;;22.74;68.82;99636.52;1800378;77;21008;-73
2021/08/10 06:48:47;;;;;;;6.97;4.70;;;;;;;22.77;69.63;99637.73;1818265;77;21844;-77
2021/08/10 06:51:17;;;;;;;8.88;4.95;;;;;;;22.86;70.15;99634.50;1818347;77;21502;-77
2021/08/10 06:53:47;;;;;;;6.17;4.55;;;;;;;22.93;69.12;99630.88;1783383;77;21043;-76
2021/08/10 06:56:14;;;;;;;6.95;4.35;;;;;;;23.02;69.17;99629.88;1820001;77;21086;-78
2021/08/10 06:58:43;;;;;;;7.12;4.60;;;;;;;23.08;68.19;99633.09;1788176;79;21076;-76
2021/08/10 07:01:14;;;;;;;11.30;5.22;;;;;;;23.14;68.34;99630.66;1747766;80;21040;-72
2021/08/10 07:03:42;;;;;;;7.00;4.50;;;;;;;23.24;67.47;99639.67;1745699;81;21024;-73
2021/08/10 07:06:12;;;;;;;6.83;3.90;;;;;;;23.26;67.35;99628.84;1748034;81;21516;-72
2021/08/10 07:08:41;;;;;;;9.38;4.40;;;;;;;23.30;66.94;99628.20;1741434;81;21024;-76
2021/08/10 07:11:11;;;;;;;4.92;4.05;;;;;;;23.38;67.41;99623.39;1767512;80;21609;-74
2021/08/10 07:13:39;;;;;;;5.75;4.30;;;;;;;23.46;66.23;99622.78;1767765;80;21098;-72
2021/08/10 07:16:09;;;;;;;4.28;3.62;;;;;;;23.44;65.32;99621.00;1759779;80;21016;-75
2021/08/10 07:18:38;;;;;;;5.80;4.03;;;;;;;23.44;66.62;99621.78;1760984;80;21024;-73
2021/08/10 07:21:06;;;;;;;7.60;4.50;;;;;;;23.49;66.29;99619.15;1759663;80;21094;-72
2021/08/10 07:23:47;;;;;;;6.20;4.33;;;;;;;23.58;65.77;99617.31;1769574;80;21020;-73
2021/08/10 07:26:17;;;;;;;5.30;3.90;;;;;;;23.66;66.42;99625.14;1758551;80;21147;-76
2021/08/10 07:28:50;;;;;;;8.68;3.95;;;;;;;23.78;65.60;99625.28;1751283;81;21531;-78
2021/08/10 07:31:25;;;;;;;9.60;4.00;;;;;;;23.86;64.92;99626.04;1717720;81;32484;-75
2021/08/10 07:33:56;;;;;;;9.35;3.98;;;;;;;23.94;64.08;99624.79;1753615;80;21015;-71
2021/08/10 07:36:24;;;;;;;4.28;3.87;;;;;;;24.00;63.71;99629.39;1761886;80;21070;-75
2021/08/10 07:38:54;;;;;;;6.75;4.25;;;;;;;24.01;63.63;99628.17;1707151;80;21055;-76
2021/08/10 07:44:03;;;;;;;5.75;4.03;;;;;;;24.09;63.73;99628.32;1583794;89;21109;-72
2021/08/10 07:46:33;;;;;;;7.85;4.22;;;;;;;24.17;64.57;99627.09;1582650;89;21127;-70
2021/08/10 07:49:05;;;;;;;11.65;3.87;;;;;;;24.28;64.17;99629.84;1560274;89;21670;-70
2021/08/10 07:51:31;;;;;;;6.90;4.00;;;;;;;24.38;64.75;99633.02;1552698;90;21092;-72
2021/08/10 07:54:00;;;;;;;8.20;4.20;;;;;;;24.50;64.13;99631.09;1568085;90;21068;-72
2021/08/10 07:56:53;;;;;;;11.90;4.95;;;;;;;24.64;64.59;99635.02;1598275;82;21082;-71
2021/08/10 07:59:14;;;;;;;4.62;4.12;;;;;;;24.77;64.17;99632.52;1650821;85;21054;-72
2021/08/10 08:01:42;;;;;;;8.10;4.00;;;;;;;24.88;63.52;99633.81;1685330;85;21087;-71
2021/08/10 08:04:13;;;;;;;9.05;4.67;;;;;;;24.97;63.38;99627.73;1682261;84;21413;-72
2021/08/10 08:06:39;;;;;;;5.10;3.87;;;;;;;25.08;63.24;99628.41;1670145;85;21008;-72
2021/08/10 08:09:07;;;;;;;5.17;3.83;;;;;;;25.16;62.84;99623.52;1684023;84;21055;-72
2021/08/10 08:11:36;;;;;;;5.40;3.62;;;;;;;25.20;61.93;99620.67;1683581;84;21067;-71
2021/08/10 08:14:04;;;;;;;4.28;3.85;;;;;;;25.25;62.13;99622.41;1679060;84;21583;-71
2021/08/10 08:16:33;;;;;;;10.75;3.92;;;;;;;25.32;61.73;99630.61;1673731;84;21053;-72
2021/08/10 08:19:03;;;;;;;11.28;4.30;;;;;;;25.31;61.20;99621.95;1679332;84;21080;-73
2021/08/10 08:21:29;;;;;;;4.58;3.83;;;;;;;25.34;61.42;99623.92;1677916;84;21064;-72
2021/08/10 08:23:56;;;;;;;11.08;3.65;;;;;;;25.38;60.39;99621.27;1678820;84;21156;-72
2021/08/10 08:26:27;;;;;;;4.58;3.45;;;;;;;25.42;60.55;99616.98;1674030;84;21596;-71
2021/08/10 08:28:59;;;;;;;5.20;3.77;;;;;;;25.49;59.73;99622.55;1679251;84;21007;-73
2021/08/10 08:31:26;;;;;;;7.90;3.52;;;;;;;25.49;60.80;99628.18;1678376;84;21068;-72
2021/08/10 08:33:57;;;;;;;5.97;3.62;;;;;;;25.55;59.68;99623.49;1676524;84;21084;-72
2021/08/10 08:36:23;;;;;;;4.45;3.62;;;;;;;25.56;59.88;99622.26;1681624;84;21067;-72
2021/08/10 08:38:49;;;;;;;6.65;3.92;;;;;;;25.64;60.99;99615.36;1678729;84;21668;-72
2021/08/10 08:41:21;;;;;;;5.12;3.98;;;;;;;25.75;59.56;99613.80;1682026;83;21081;-72
2021/08/10 08:43:51;;;;;;;5.60;3.12;;;;;;;25.82;60.25;99610.89;1656184;85;21039;-73
2021/08/10 08:46:22;;;;;;;5.40;3.92;;;;;;;25.89;59.73;99607.98;1664728;85;21030;-71
2021/08/10 08:48:50;;;;;;;6.03;3.58;;;;;;;25.96;59.48;99614.14;1677239;85;21024;-72
2021/08/10 08:51:23;;;;;;;7.17;3.95;;;;;;;26.04;58.93;99606.36;1677585;85;21043;-71
2021/08/10 08:53:54;;;;;;;8.73;4.05;;;;;;;26.06;58.45;99603.91;1675834;85;21557;-71
2021/08/10 08:56:23;;;;;;;5.37;4.53;;;;;;;26.09;58.67;99606.48;1662356;83;21026;-70
2021/08/10 08:58:57;;;;;;;7.12;4.15;;;;;;;26.12;57.87;99606.44;1694943;83;21096;-71
2021/08/10 09:01:27;;;;;;;8.00;4.55;;;;;;;26.07;58.37;99602.67;1700641;82;21078;-72
2021/08/10 09:03:55;;;;;;;4.85;3.50;;;;;;;26.10;58.68;99605.28;1674773;83;21123;-72
2021/08/10 09:06:22;;;;;;;4.45;3.85;;;;;;;26.17;58.95;99606.56;1673501;83;21137;-73
2021/08/10 09:08:56;;;;;;;4.30;3.60;;;;;;;26.27;58.87;99606.84;1681050;83;21458;-73
2021/08/10 09:11:26;;;;;;;9.05;4.55;;;;;;;26.36;58.64;99607.12;1679544;83;21100;-73
2021/08/10 09:13:59;;;;;;;8.73;4.50;;;;;;;26.39;58.41;99605.48;1668874;84;21093;-72
2021/08/10 09:16:26;;;;;;;6.15;3.52;;;;;;;26.47;58.18;99599.29;1680065;83;21521;-72
2021/08/10 09:18:57;;;;;;;5.03;4.37;;;;;;;26.52;57.63;99597.19;1671094;84;21065;-73
2021/08/10 09:21:26;;;;;;;5.53;3.65;;;;;;;26.51;57.46;99599.23;1642747;85;21553;-73
2021/08/10 09:24:01;;;;;;;6.15;4.12;;;;;;;26.60;56.74;99601.48;1701731;82;21589;-71
2021/08/10 09:26:36;;;;;;;10.53;4.05;;;;;;;26.57;56.35;99601.75;1696967;83;21095;-72
2021/08/10 09:29:06;;;;;;;6.72;3.90;;;;;;;26.55;55.43;99602.78;1699390;82;21022;-70
2021/08/10 09:31:47;;;;;;;5.60;4.33;;;;;;;26.54;55.85;99594.14;1700945;82;21161;-73
2021/08/10 09:34:25;;;;;;;5.12;4.12;;;;;;;26.61;57.37;99597.45;1668970;84;21041;-72
2021/08/10 09:36:57;;;;;;;8.73;4.08;;;;;;;26.71;55.86;99597.08;1676922;85;21041;-72
2021/08/10 09:39:34;;;;;;;8.30;4.15;;;;;;;26.72;54.66;99592.41;1682041;83;21055;-73
2021/08/10 09:42:10;;;;;;;6.92;4.08;;;;;;;26.74;57.39;99595.61;1684286;83;21514;-71
2021/08/10 09:45:04;;;;;;;7.55;4.08;;;;;;;26.81;56.56;99593.88;1678965;83;20982;-73
2021/08/10 09:47:42;;;;;;;4.43;3.97;;;;;;;26.81;56.77;99598.11;1675989;84;21099;-73
2021/08/10 09:50:23;;;;;;;6.15;4.75;;;;;;;26.85;57.28;99589.75;1676792;84;21006;-73
2021/08/10 09:52:53;;;;;;;6.00;4.35;;;;;;;26.93;55.42;99583.97;1681686;83;21514;-73
2021/08/10 09:55:20;;;;;;;5.80;4.53;;;;;;;27.01;56.52;99570.50;1677546;85;21149;-74
2021/08/10 09:58:04;;;;;;;6.67;4.75;;;;;;;27.14;56.05;99574.34;1676546;83;21073;-72
2021/08/10 10:00:39;;;;;;;5.35;3.77;;;;;;;27.22;54.54;99571.55;1675663;85;21031;-72
2021/08/10 10:03:25;;;;;;;4.70;4.08;;;;;;;27.13;54.62;99575.55;1675838;83;21085;-73
2021/08/10 10:05:55;;;;;;;4.55;3.72;;;;;;;27.17;55.52;99572.05;1707051;82;21554;-73
2021/08/10 10:08:25;;;;;;;7.20;4.58;;;;;;;27.26;56.01;99564.38;1723043;81;21033;-73
2021/08/10 10:10:55;;;;;;;14.30;4.62;;;;;;;27.33;56.05;99564.24;1683782;82;21076;-72
2021/08/10 10:13:26;;;;;;;4.33;3.87;;;;;;;27.37;54.60;99565.59;1677423;84;21039;-72
2021/08/10 10:15:52;;;;;;;5.80;4.28;;;;;;;27.33;54.04;99563.47;1681582;84;21010;-73
2021/08/10 10:18:21;;;;;;;4.70;4.17;;;;;;;27.36;55.76;99556.12;1655348;85;21011;-71
2021/08/10 10:20:49;;;;;;;4.72;3.98;;;;;;;27.48;55.22;99558.91;1685145;83;21615;-71
2021/08/10 10:23:25;;;;;;;6.80;3.67;;;;;;;27.58;55.10;99555.87;1682444;83;21137;-71
2021/08/10 10:25:52;;;;;;;8.65;4.22;;;;;;;27.73;53.89;99549.10;1681282;83;21034;-70
2021/08/10 10:28:18;;;;;;;5.10;3.58;;;;;;;27.84;54.32;99548.27;1659010;83;21073;-71
2021/08/10 10:30:49;;;;;;;6.85;3.80;;;;;;;27.97;53.50;99551.19;1697567;83;21330;-72
2021/08/10 10:33:17;;;;;;;6.47;3.67;;;;;;;27.95;51.38;99550.83;1696832;83;21023;-73
2021/08/10 10:35:44;;;;;;;4.80;4.10;;;;;;;27.84;51.52;99546.84;1675759;84;22152;-72
2021/08/10 10:38:10;;;;;;;4.33;3.72;;;;;;;27.76;52.23;99546.80;1672180;84;21557;-73
2021/08/10 10:40:37;;;;;;;7.00;3.98;;;;;;;27.80;52.46;99539.05;1676190;85;21055;-73
2021/08/10 10:43:08;;;;;;;10.08;3.80;;;;;;;27.90;53.31;99542.86;1684218;83;21104;-72
2021/08/10 10:45:39;;;;;;;7.47;3.17;;;;;;;27.97;53.39;99544.11;1658294;85;21101;-71
2021/08/10 10:48:38;;;;;;;8.08;4.00;;;;;;;28.00;52.16;99538.17;1681312;83;21872;-72
2021/08/10 10:51:11;;;;;;;8.28;3.33;;;;;;;27.94;51.53;99535.87;1676622;85;21085;-71
2021/08/10 10:53:44;;;;;;;4.42;3.50;;;;;;;27.92;51.78;99536.14;1681667;83;21040;-72
2021/08/10 10:56:33;;;;;;;6.00;4.15;;;;;;;27.98;51.79;99535.02;1659334;85;21040;-71
2021/08/10 10:59:25;;;;;;;7.72;3.50;;;;;;;28.03;52.13;99540.92;1689871;83;21043;-71
2021/08/10 11:02:12;;;;;;;4.33;3.58;;;;;;;28.14;51.65;99532.19;1685953;83;22021;-71
2021/08/10 11:05:12;;;;;;;5.30;3.65;;;;;;;28.28;51.57;99533.06;1654300;85;21100;-72
2021/08/10 11:07:47;;;;;;;5.53;4.05;;;;;;;28.41;52.05;99527.50;1680473;83;21056;-71
2021/08/10 11:10:48;;;;;;;7.10;4.17;;;;;;;28.53;51.82;99523.16;1680169;83;21085;-71
2021/08/10 11:13:37;;;;;;;6.62;3.65;;;;;;;28.43;49.90;99521.59;1675178;85;21060;-73
2021/08/10 11:16:10;;;;;;;6.20;3.85;;;;;;;28.33;49.03;99524.05;1673888;83;21157;-74
2021/08/10 11:18:39;;;;;;;5.08;3.65;;;;;;;28.23;49.85;99524.49;1656986;83;20994;-73
2021/08/10 11:21:15;;;;;;;7.20;3.80;;;;;;;28.23;49.40;99522.27;1700406;82;21103;-71
2021/08/10 11:23:44;;;;;;;9.15;4.97;;;;;;;28.18;50.55;99520.78;1698509;82;21106;-72
2021/08/10 11:26:16;;;;;;;6.20;5.20;;;;;;;28.24;50.08;99515.36;1700180;82;20998;-73
2021/08/10 11:28:51;;;;;;;11.68;4.70;;;;;;;28.33;50.57;99511.30;1690969;83;21908;-74
2021/08/10 11:31:43;;;;;;;10.70;3.62;;;;;;;28.47;50.72;99515.03;1693492;84;21106;-74
2021/08/10 11:34:34;;;;;;;7.92;3.72;;;;;;;28.65;51.05;99509.68;1687601;83;21055;-72
2021/08/10 11:37:28;;;;;;;9.23;3.12;;;;;;;28.77;49.29;99506.73;1702406;82;21014;-72
2021/08/10 11:40:11;;;;;;;3.55;3.20;;;;;;;28.78;47.06;99506.89;1728455;81;21050;-72
2021/08/10 11:42:39;;;;;;;5.42;3.58;;;;;;;28.69;49.25;99512.42;1733723;81;21537;-70
2021/08/10 11:45:09;;;;;;;7.42;3.30;;;;;;;28.77;49.25;99498.84;1733053;81;21037;-67
2021/08/10 11:47:38;;;;;;;5.80;3.08;;;;;;;28.85;48.83;99490.31;1711408;82;21093;-68
2021/08/10 11:50:05;;;;;;;10.55;2.85;;;;;;;28.96;48.00;99487.80;1731309;81;21001;-69
2021/08/10 11:52:44;;;;;;;5.55;2.87;;;;;;;28.98;47.35;99491.02;1736519;81;21588;-68
2021/08/10 11:55:11;;;;;;;4.35;3.25;;;;;;;28.94;47.61;99493.11;1729598;82;21543;-69
2021/08/10 11:58:04;;;;;;;6.37;3.37;;;;;;;28.96;47.42;99496.30;1721037;81;21011;-73